Time;durP1;ratioP1;P1;durP2;ratioP2;P2;SDS_P1;SDS_P2;PMS_P1;PMS_P2;Temp;Humidity;BMP_temperature;BMP_pressure;BME280_temperature;BME280_humidity;BME280_pressure;Samples;Min_cycle;Max_cycle;Signal;HPM_P1;HPM_P2
2022/06/22 00:01:57;;;;;;;9.27;8.67;;;22.70;99.90;;;;;;4970475;28;20527;-68
2022/06/22 00:04:26;;;;;;;10.30;9.40;;;22.70;99.90;;;;;;4979817;28;20462;-68
2022/06/22 00:06:55;;;;;;;9.13;8.43;;;22.60;99.90;;;;;;4969711;28;20949;-68
2022/06/22 00:09:34;;;;;;;9.60;8.80;;;22.50;99.90;;;;;;4970713;28;20470;-67
2022/06/22 00:12:00;;;;;;;9.23;8.20;;;22.60;99.90;;;;;;4971929;28;20436;-68
2022/06/22 00:14:50;;;;;;;9.40;8.37;;;22.50;99.90;;;;;;4975621;28;20460;-68
2022/06/22 00:17:24;;;;;;;9.53;8.93;;;22.40;99.90;;;;;;4965977;28;20440;-67
2022/06/22 00:19:49;;;;;;;9.27;8.57;;;22.40;99.90;;;;;;4976543;28;20821;-68
2022/06/22 00:22:21;;;;;;;9.93;9.07;;;22.30;99.90;;;;;;4970007;28;20447;-68
2022/06/22 00:25:09;;;;;;;11.47;9.03;;;22.20;99.90;;;;;;4970918;28;20207;-68
2022/06/22 00:27:36;;;;;;;12.43;9.10;;;22.00;99.90;;;;;;4966689;28;20452;-67
2022/06/22 00:30:19;;;;;;;10.43;9.70;;;22.10;99.90;;;;;;4976286;28;20456;-68
2022/06/22 00:33:21;;;;;;;10.33;9.33;;;22.10;99.90;;;;;;4976102;28;20439;-68
2022/06/22 00:36:07;;;;;;;9.97;9.17;;;22.10;99.90;;;;;;4966051;28;20446;-68
2022/06/22 00:38:33;;;;;;;8.93;8.27;;;22.20;99.90;;;;;;4966226;28;20447;-68
2022/06/22 00:41:36;;;;;;;8.97;8.20;;;22.20;99.90;;;;;;4975711;28;20431;-68
2022/06/22 00:44:07;;;;;;;9.50;8.70;;;22.00;99.90;;;;;;4923915;29;20241;-67
2022/06/22 00:46:33;;;;;;;9.80;9.10;;;21.70;99.90;;;;;;4962452;28;20471;-68
2022/06/22 00:49:09;;;;;;;10.40;9.60;;;21.80;99.90;;;;;;4974381;28;20459;-68
2022/06/22 00:51:40;;;;;;;10.20;9.27;;;21.90;99.90;;;;;;4972711;28;20439;-68
2022/06/22 00:54:10;;;;;;;11.47;10.57;;;21.80;99.90;;;;;;4972578;28;21153;-68
2022/06/22 00:56:51;;;;;;;10.13;9.30;;;21.70;99.90;;;;;;4974952;28;20467;-68
2022/06/22 00:59:30;;;;;;;10.83;9.73;;;21.80;99.90;;;;;;4970994;28;20439;-68
2022/06/22 01:02:13;;;;;;;11.30;10.40;;;21.70;99.90;;;;;;4972446;28;20439;-68
2022/06/22 01:05:05;;;;;;;11.47;10.60;;;21.70;99.90;;;;;;4971246;28;20473;-68
2022/06/22 01:07:39;;;;;;;11.10;10.10;;;21.80;99.90;;;;;;4969876;28;20507;-68
2022/06/22 01:10:14;;;;;;;10.07;9.20;;;21.80;99.90;;;;;;4976262;28;20518;-68
2022/06/22 01:12:51;;;;;;;9.90;9.13;;;21.80;99.90;;;;;;4971707;28;20526;-68
2022/06/22 01:15:25;;;;;;;9.17;8.43;;;21.80;99.90;;;;;;4982079;28;20439;-68
2022/06/22 01:18:09;;;;;;;11.60;10.60;;;21.80;99.90;;;;;;4982006;28;20435;-67
2022/06/22 01:21:12;;;;;;;11.07;10.17;;;21.80;99.90;;;;;;4981873;28;20451;-68
2022/06/22 01:24:05;;;;;;;10.70;9.70;;;21.70;99.90;;;;;;4970739;28;20514;-68
2022/06/22 01:27:11;;;;;;;10.00;9.30;;;21.80;99.90;;;;;;4976045;28;20438;-68
2022/06/22 01:29:47;;;;;;;10.07;9.17;;;21.90;99.90;;;;;;4969734;28;20522;-68
2022/06/22 01:32:16;;;;;;;10.07;9.40;;;22.00;99.90;;;;;;4977341;28;20527;-68
2022/06/22 01:34:47;;;;;;;9.87;8.93;;;21.90;99.90;;;;;;4973396;28;20467;-67
2022/06/22 01:37:16;;;;;;;9.93;9.07;;;21.90;99.90;;;;;;4974949;28;20445;-68
2022/06/22 01:39:42;;;;;;;8.93;8.20;;;21.70;99.90;;;;;;4973038;28;20439;-68
2022/06/22 01:42:19;;;;;;;10.50;9.57;;;21.50;99.90;;;;;;4970761;28;20506;-67
2022/06/22 01:44:49;;;;;;;10.83;9.97;;;21.40;99.90;;;;;;4974737;28;20294;-68
2022/06/22 01:47:41;;;;;;;10.70;9.97;;;21.40;99.90;;;;;;4972079;28;20476;-68
2022/06/22 01:50:25;;;;;;;10.90;10.00;;;21.60;99.90;;;;;;4971404;28;20566;-68
2022/06/22 01:53:05;;;;;;;10.70;9.90;;;21.70;99.90;;;;;;4971024;28;20443;-67
2022/06/22 01:55:39;;;;;;;10.90;10.00;;;21.80;99.90;;;;;;4980836;28;20526;-68
2022/06/22 01:58:14;;;;;;;10.70;9.70;;;21.80;99.90;;;;;;4973307;28;20467;-68
2022/06/22 02:00:42;;;;;;;9.83;9.03;;;21.80;99.90;;;;;;4976889;28;20430;-68
2022/06/22 02:03:22;;;;;;;10.47;9.57;;;21.90;99.90;;;;;;4972039;28;20443;-68
2022/06/22 02:05:57;;;;;;;10.83;10.07;;;21.90;99.90;;;;;;4970071;28;20490;-68
2022/06/22 02:08:36;;;;;;;11.70;10.80;;;21.90;99.90;;;;;;4972071;28;20466;-68
2022/06/22 02:11:12;;;;;;;9.90;8.90;;;21.90;99.90;;;;;;4981938;28;21064;-66
2022/06/22 02:13:53;;;;;;;10.47;9.73;;;21.90;99.90;;;;;;4973803;28;20459;-68
2022/06/22 02:16:44;;;;;;;10.40;9.70;;;22.00;99.90;;;;;;4967513;28;20842;-68
2022/06/22 02:19:13;;;;;;;10.70;9.90;;;22.00;99.90;;;;;;4971436;28;20443;-68
2022/06/22 02:21:49;;;;;;;10.30;9.60;;;21.90;99.90;;;;;;4970143;28;20439;-68
2022/06/22 02:24:28;;;;;;;11.80;10.70;;;21.70;99.90;;;;;;4976259;28;20463;-68
2022/06/22 02:27:07;;;;;;;11.87;10.77;;;21.70;99.90;;;;;;4973612;28;20444;-68
2022/06/22 02:29:38;;;;;;;11.10;10.30;;;21.60;99.90;;;;;;4976079;28;20558;-68
2022/06/22 02:32:07;;;;;;;11.80;10.90;;;21.50;99.90;;;;;;4973462;28;20526;-68
2022/06/22 02:34:34;;;;;;;10.80;9.87;;;21.60;99.90;;;;;;4976612;28;20470;-68
2022/06/22 02:37:03;;;;;;;12.17;10.97;;;21.60;99.90;;;;;;4973432;28;20789;-68
2022/06/22 02:39:32;;;;;;;11.20;10.30;;;21.40;99.90;;;;;;4980133;28;20471;-68
2022/06/22 02:44:46;;;;;;;12.23;11.37;;;21.30;99.90;;;;;;4972700;28;20983;-68
2022/06/22 02:47:29;;;;;;;12.30;11.50;;;21.30;99.90;;;;;;4969879;28;20439;-68
2022/06/22 02:50:06;;;;;;;12.10;11.17;;;21.40;99.90;;;;;;4972118;28;20219;-68
2022/06/22 02:52:49;;;;;;;12.87;11.70;;;21.40;99.90;;;;;;4971469;28;20952;-68
2022/06/22 02:55:22;;;;;;;12.20;11.27;;;21.50;99.90;;;;;;4969002;28;20443;-68
2022/06/22 02:58:00;;;;;;;11.20;10.30;;;21.50;99.90;;;;;;4972857;28;20522;-68
2022/06/22 03:00:40;;;;;;;12.63;11.63;;;21.50;99.90;;;;;;4976695;28;20463;-68
2022/06/22 03:03:09;;;;;;;12.83;11.50;;;21.30;99.90;;;;;;4972204;28;20443;-68
2022/06/22 03:05:37;;;;;;;13.40;12.40;;;21.30;99.90;;;;;;4969118;28;20534;-68
2022/06/22 03:08:03;;;;;;;12.43;11.50;;;21.30;99.90;;;;;;4970698;28;20447;-68
2022/06/22 03:10:54;;;;;;;12.97;11.77;;;21.30;99.90;;;;;;4971759;28;20443;-68
2022/06/22 03:13:23;;;;;;;12.17;11.07;;;21.40;99.90;;;;;;4971587;28;20470;-68
2022/06/22 03:15:49;;;;;;;11.80;10.90;;;21.50;99.90;;;;;;4971710;28;20436;-68
2022/06/22 03:18:24;;;;;;;12.33;11.43;;;21.30;99.90;;;;;;4976459;28;20461;-68
2022/06/22 03:21:00;;;;;;;11.80;10.83;;;22.20;99.90;;;;;;4972175;28;20187;-68
2022/06/22 03:23:39;;;;;;;12.30;11.13;;;21.30;99.90;;;;;;4979659;28;20498;-68
2022/06/22 03:26:12;;;;;;;15.00;13.80;;;21.30;99.90;;;;;;4971380;28;20475;-68
2022/06/22 03:28:49;;;;;;;12.97;12.07;;;21.10;99.90;;;;;;4972063;28;20467;-67
2022/06/22 03:31:21;;;;;;;12.30;11.30;;;21.10;99.90;;;;;;4970039;28;20446;-68
2022/06/22 03:34:10;;;;;;;14.00;12.70;;;21.00;99.90;;;;;;4972486;28;20467;-68
2022/06/22 03:36:44;;;;;;;14.17;13.07;;;21.00;99.90;;;;;;4971433;28;20479;-68
2022/06/22 03:39:14;;;;;;;13.67;12.57;;;21.00;99.90;;;;;;4967623;28;20443;-68
2022/06/22 03:41:45;;;;;;;11.80;10.97;;;20.90;99.90;;;;;;4969215;28;20463;-68
2022/06/22 03:44:16;;;;;;;14.53;13.07;;;20.90;99.90;;;;;;4969758;28;20470;-69
2022/06/22 03:46:54;;;;;;;13.23;12.03;;;20.90;99.90;;;;;;4968291;28;20442;-68
2022/06/22 03:49:31;;;;;;;12.83;11.83;;;20.80;99.90;;;;;;4970991;28;20474;-68
2022/06/22 03:52:36;;;;;;;12.70;11.70;;;20.90;99.90;;;;;;4972777;28;20533;-68
2022/06/22 03:55:08;;;;;;;11.87;10.83;;;21.00;99.90;;;;;;4966507;28;21003;-68
2022/06/22 03:57:37;;;;;;;14.40;12.57;;;21.10;99.90;;;;;;4972240;28;20439;-68
2022/06/22 04:00:06;;;;;;;11.93;11.03;;;21.20;99.90;;;;;;4974079;28;20482;-68
2022/06/22 04:02:32;;;;;;;11.90;11.00;;;21.30;99.90;;;;;;4971875;28;20444;-68
2022/06/22 04:04:59;;;;;;;11.97;10.87;;;21.20;99.90;;;;;;4972774;28;20513;-68
2022/06/22 04:07:31;;;;;;;12.63;11.50;;;21.30;99.90;;;;;;4970430;28;20860;-68
2022/06/22 04:09:57;;;;;;;11.57;10.70;;;21.40;99.90;;;;;;4970754;28;20530;-68
2022/06/22 04:12:40;;;;;;;12.73;11.70;;;21.40;99.90;;;;;;4973676;28;20444;-68
2022/06/22 04:15:17;;;;;;;12.57;11.27;;;21.50;99.90;;;;;;4972507;28;20459;-68
2022/06/22 04:17:53;;;;;;;12.90;11.90;;;21.30;99.90;;;;;;4979569;28;20971;-68
2022/06/22 04:20:52;;;;;;;13.70;12.70;;;21.30;99.90;;;;;;4969563;28;20551;-68
2022/06/22 04:24:11;;;;;;;12.27;11.27;;;21.40;99.90;;;;;;4971473;28;20467;-68
2022/06/22 04:27:07;;;;;;;12.80;11.80;;;21.60;99.90;;;;;;4954700;28;20448;-68
2022/06/22 04:29:40;;;;;;;13.27;12.30;;;21.60;99.90;;;;;;4965995;28;20526;-68
2022/06/22 04:32:34;;;;;;;12.90;12.00;;;21.70;99.90;;;;;;4972125;28;20904;-68
2022/06/22 04:35:03;;;;;;;14.80;13.57;;;21.70;99.90;;;;;;4972090;28;20463;-68
2022/06/22 04:37:55;;;;;;;14.50;13.40;;;21.70;99.90;;;;;;4969934;28;20439;-68
2022/06/22 04:40:32;;;;;;;13.67;12.60;;;21.90;99.90;;;;;;4971954;28;20553;-69
2022/06/22 04:43:01;;;;;;;12.97;11.67;;;21.90;99.90;;;;;;4970014;28;20459;-67
2022/06/22 04:45:33;;;;;;;12.30;11.40;;;21.90;99.90;;;;;;4964836;28;20445;-68
2022/06/22 04:48:25;;;;;;;13.90;12.43;;;21.80;99.90;;;;;;4968186;28;20448;-68
2022/06/22 04:50:57;;;;;;;12.60;11.70;;;21.90;99.90;;;;;;4968214;28;20461;-68
2022/06/22 04:53:31;;;;;;;13.63;12.53;;;21.90;99.90;;;;;;4969641;28;20463;-68
2022/06/22 04:56:01;;;;;;;14.23;12.90;;;21.90;99.90;;;;;;4972893;28;20813;-69
2022/06/22 04:58:46;;;;;;;14.93;13.40;;;21.90;99.90;;;;;;4970005;28;20499;-68
2022/06/22 05:01:30;;;;;;;13.20;12.20;;;22.00;99.90;;;;;;4968480;28;20582;-68
2022/06/22 05:04:05;;;;;;;14.70;13.50;;;22.10;99.90;;;;;;4965836;28;20471;-68
2022/06/22 05:06:45;;;;;;;13.30;12.40;;;22.20;99.90;;;;;;4969777;28;20437;-68
2022/06/22 05:09:21;;;;;;;14.40;13.20;;;22.40;99.90;;;;;;4962058;28;20545;-67
2022/06/22 05:11:48;;;;;;;13.13;12.13;;;22.50;99.90;;;;;;4968661;28;20440;-68
2022/06/22 05:14:28;;;;;;;13.17;12.17;;;22.50;99.90;;;;;;4977555;28;20964;-68
2022/06/22 05:17:06;;;;;;;13.27;12.37;;;22.70;99.90;;;;;;4973090;28;20581;-68
2022/06/22 05:19:39;;;;;;;13.27;12.27;;;22.80;99.90;;;;;;4976470;28;20466;-68
2022/06/22 05:22:15;;;;;;;13.17;11.90;;;22.90;99.90;;;;;;4979588;28;20596;-68
2022/06/22 05:24:46;;;;;;;14.70;13.10;;;22.70;99.90;;;;;;4977880;28;21103;-68
2022/06/22 05:27:20;;;;;;;14.07;12.77;;;22.50;99.90;;;;;;4968504;28;20527;-68
2022/06/22 05:29:50;;;;;;;13.47;12.47;;;22.70;99.90;;;;;;4973861;28;20476;-68
2022/06/22 05:32:22;;;;;;;13.50;12.17;;;22.80;99.90;;;;;;4970201;28;20451;-68
2022/06/22 05:34:51;;;;;;;13.10;11.87;;;23.00;99.90;;;;;;4972266;28;20546;-68
2022/06/22 05:37:32;;;;;;;13.00;11.70;;;23.30;99.90;;;;;;4972089;28;20439;-68
2022/06/22 05:39:59;;;;;;;13.13;11.93;;;23.60;99.90;;;;;;4970816;28;20459;-70
2022/06/22 05:42:28;;;;;;;13.10;11.87;;;23.80;99.90;;;;;;4972142;28;20447;-67
2022/06/22 05:44:54;;;;;;;12.73;11.73;;;23.90;99.90;;;;;;4970645;28;20464;-67
2022/06/22 05:47:27;;;;;;;12.97;12.07;;;23.80;99.90;;;;;;4973717;28;20450;-67
2022/06/22 05:50:31;;;;;;;12.73;11.70;;;23.90;99.90;;;;;;4986060;28;20231;-68
2022/06/22 05:53:03;;;;;;;12.30;11.10;;;23.80;99.90;;;;;;4976056;28;21027;-68
2022/06/22 05:55:39;;;;;;;12.83;11.77;;;23.80;99.90;;;;;;4973636;28;20439;-68
2022/06/22 05:58:16;;;;;;;13.47;12.37;;;23.80;99.90;;;;;;4972174;28;20523;-68
2022/06/22 06:00:51;;;;;;;12.20;11.20;;;23.70;99.90;;;;;;4966379;28;20461;-68
2022/06/22 06:03:28;;;;;;;12.00;11.10;;;23.70;99.90;;;;;;4974204;28;20463;-68
2022/06/22 06:06:16;;;;;;;12.50;11.50;;;23.60;99.90;;;;;;4970453;28;20500;-69
2022/06/22 06:08:53;;;;;;;12.87;11.90;;;23.30;99.90;;;;;;4970828;28;20554;-68
2022/06/22 06:11:23;;;;;;;13.70;12.63;;;23.30;99.90;;;;;;4972365;28;20941;-68
2022/06/22 06:13:58;;;;;;;12.20;11.30;;;23.20;99.90;;;;;;4973078;28;20463;-68
2022/06/22 06:16:27;;;;;;;12.70;11.50;;;23.20;99.90;;;;;;4973025;28;20435;-68
2022/06/22 06:18:58;;;;;;;12.17;11.27;;;23.40;99.90;;;;;;4971550;28;20446;-68
2022/06/22 06:21:31;;;;;;;12.60;11.40;;;23.10;99.90;;;;;;4971366;28;20436;-68
2022/06/22 06:23:56;;;;;;;12.37;11.27;;;22.80;99.90;;;;;;4963191;28;20459;-69
2022/06/22 06:29:39;;;;;;;11.70;10.80;;;22.60;99.90;;;;;;4971650;28;20629;-68
2022/06/22 06:32:32;;;;;;;16.27;14.80;;;22.60;99.90;;;;;;4969368;28;20494;-68
2022/06/22 06:35:36;;;;;;;12.43;11.40;;;22.50;99.90;;;;;;4970254;28;20456;-68
2022/06/22 06:38:07;;;;;;;12.33;11.30;;;22.60;99.90;;;;;;4967781;28;20954;-68
2022/06/22 06:40:42;;;;;;;12.57;11.37;;;22.50;99.90;;;;;;4970846;28;22130;-68
2022/06/22 06:43:45;;;;;;;12.20;11.00;;;22.50;99.90;;;;;;4970692;28;20450;-69
2022/06/22 06:46:22;;;;;;;12.30;11.30;;;22.40;99.90;;;;;;4949915;29;20869;-68
2022/06/22 06:49:22;;;;;;;13.57;12.33;;;22.10;99.90;;;;;;4968129;28;20467;-68
2022/06/22 06:51:59;;;;;;;13.70;12.50;;;21.90;99.90;;;;;;4966161;28;20964;-68
2022/06/22 06:54:37;;;;;;;14.70;13.40;;;21.60;99.90;;;;;;4971261;28;20502;-68
2022/06/22 06:57:10;;;;;;;15.60;14.10;;;21.30;99.90;;;;;;4970093;28;20444;-68
2022/06/22 06:59:39;;;;;;;16.77;15.27;;;21.10;99.90;;;;;;4973380;28;20455;-68
2022/06/22 07:02:32;;;;;;;16.00;14.43;;;21.00;99.90;;;;;;4971630;28;20456;-67
2022/06/22 07:05:00;;;;;;;16.00;14.60;;;20.90;99.90;;;;;;4968231;28;20534;-67
2022/06/22 07:07:37;;;;;;;16.33;15.00;;;20.80;99.90;;;;;;4947030;28;22367;-70
2022/06/22 07:10:14;;;;;;;17.97;16.47;;;20.70;99.90;;;;;;4958519;28;20479;-69
2022/06/22 07:12:45;;;;;;;16.63;15.33;;;20.90;99.90;;;;;;4972196;28;20427;-68
2022/06/22 07:15:16;;;;;;;18.27;16.67;;;21.00;99.90;;;;;;4973895;28;20490;-67
2022/06/22 07:17:44;;;;;;;19.40;17.50;;;20.90;99.90;;;;;;4988062;28;20419;-68
2022/06/22 07:20:23;;;;;;;19.70;18.00;;;20.90;99.90;;;;;;4992873;28;20426;-69
2022/06/22 07:22:52;;;;;;;17.93;16.20;;;20.90;99.90;;;;;;4993068;28;20826;-69
2022/06/22 07:25:27;;;;;;;16.43;15.03;;;21.00;99.90;;;;;;4993121;28;20434;-70
2022/06/22 07:28:10;;;;;;;20.30;16.37;;;21.10;99.90;;;;;;4981301;28;20466;-68
2022/06/22 07:30:50;;;;;;;23.17;20.80;;;21.10;99.90;;;;;;4962635;28;20437;-68
2022/06/22 07:33:32;;;;;;;19.43;17.13;;;21.20;99.90;;;;;;4962424;28;20451;-68
2022/06/22 07:36:06;;;;;;;17.23;15.73;;;21.30;99.90;;;;;;4967066;28;20427;-69
2022/06/22 07:39:01;;;;;;;14.87;13.67;;;21.60;99.90;;;;;;4992009;28;20472;-69
2022/06/22 07:41:29;;;;;;;14.50;13.30;;;21.50;99.90;;;;;;4992991;28;20449;-70
2022/06/22 07:44:05;;;;;;;16.13;14.60;;;21.60;99.90;;;;;;4980632;28;20452;-68
2022/06/22 07:46:30;;;;;;;14.77;13.60;;;21.80;99.90;;;;;;4958534;28;20439;-69
2022/06/22 07:49:07;;;;;;;16.70;15.50;;;21.90;99.90;;;;;;4965416;28;20529;-68
2022/06/22 07:51:36;;;;;;;15.37;14.10;;;22.20;99.90;;;;;;4959255;28;20176;-69
2022/06/22 07:54:24;;;;;;;16.83;15.43;;;22.60;99.90;;;;;;4982257;28;20466;-68
2022/06/22 07:57:05;;;;;;;14.90;13.60;;;22.80;99.90;;;;;;4984818;28;20836;-69
2022/06/22 07:59:37;;;;;;;13.80;12.50;;;23.20;99.90;;;;;;4989270;28;20824;-69
2022/06/22 08:02:11;;;;;;;15.17;13.77;;;23.30;99.90;;;;;;4973979;28;20451;-71
2022/06/22 08:04:55;;;;;;;14.17;13.00;;;23.20;99.90;;;;;;4963799;28;20514;-70
2022/06/22 08:07:37;;;;;;;13.40;12.20;;;22.80;99.90;;;;;;4962560;28;20428;-68
2022/06/22 08:10:17;;;;;;;13.90;12.80;;;22.80;99.90;;;;;;4964625;28;20464;-68
2022/06/22 08:12:59;;;;;;;15.43;14.03;;;22.90;99.90;;;;;;4963097;28;20856;-69
2022/06/22 08:15:25;;;;;;;13.40;12.33;;;22.70;99.90;;;;;;4961624;28;20419;-69
2022/06/22 08:17:53;;;;;;;14.03;11.63;;;22.90;99.90;;;;;;4962613;28;20423;-69
2022/06/22 08:20:41;;;;;;;12.77;11.67;;;23.20;99.90;;;;;;4963500;28;20998;-68
2022/06/22 08:23:14;;;;;;;15.20;13.70;;;23.30;99.90;;;;;;4961954;28;20466;-69
2022/06/22 08:25:44;;;;;;;14.73;13.40;;;23.20;99.90;;;;;;4962107;28;20424;-70
2022/06/22 08:28:12;;;;;;;12.93;11.80;;;23.50;99.90;;;;;;4963662;28;20433;-68
2022/06/22 08:30:39;;;;;;;13.63;12.53;;;23.40;99.90;;;;;;4967430;28;20783;-69
2022/06/22 08:33:08;;;;;;;12.77;11.67;;;23.70;99.90;;;;;;4972948;28;20474;-67
2022/06/22 08:35:49;;;;;;;13.77;12.70;;;23.60;99.90;;;;;;4971751;28;20560;-70
2022/06/22 08:38:25;;;;;;;14.13;12.87;;;23.50;99.90;;;;;;4972200;28;20454;-69
2022/06/22 08:41:23;;;;;;;13.70;12.60;;;23.60;99.90;;;;;;4979645;28;20481;-68
2022/06/22 08:44:01;;;;;;;17.83;16.17;;;23.30;99.90;;;;;;4992300;28;20439;-68
2022/06/22 08:46:39;;;;;;;14.70;13.43;;;23.30;99.90;;;;;;4989025;28;20437;-70
2022/06/22 08:49:35;;;;;;;14.00;12.80;;;23.10;99.90;;;;;;4991872;28;20460;-68
2022/06/22 08:52:27;;;;;;;14.13;12.63;;;23.00;99.90;;;;;;4995887;28;20411;-69
2022/06/22 08:55:14;;;;;;;14.10;12.77;;;23.30;99.90;;;;;;4995921;28;20449;-69
2022/06/22 08:58:25;;;;;;;12.83;11.70;;;23.60;99.90;;;;;;4992637;28;20441;-68
2022/06/22 09:01:08;;;;;;;16.70;12.80;;;23.70;99.90;;;;;;4942999;29;20951;-68
2022/06/22 09:04:15;;;;;;;16.43;14.97;;;23.70;99.90;;;;;;4975844;28;20446;-69
2022/06/22 09:07:06;;;;;;;13.27;12.07;;;23.60;99.90;;;;;;4963287;28;20419;-69
2022/06/22 09:09:52;;;;;;;13.77;12.37;;;23.50;99.90;;;;;;4974545;28;20463;-68
2022/06/22 09:12:42;;;;;;;12.00;11.00;;;23.60;99.90;;;;;;4976184;28;20827;-69
2022/06/22 09:15:42;;;;;;;13.50;12.30;;;23.60;99.90;;;;;;4976078;28;20490;-68
2022/06/22 09:18:19;;;;;;;13.77;12.40;;;23.80;99.90;;;;;;4974674;28;20430;-67
2022/06/22 09:21:17;;;;;;;13.57;12.40;;;23.60;99.90;;;;;;4976085;28;21061;-68
2022/06/22 09:23:57;;;;;;;13.90;12.70;;;23.20;99.90;;;;;;4975842;28;20435;-69
2022/06/22 09:26:41;;;;;;;14.70;13.60;;;23.10;99.90;;;;;;4972669;28;20454;-69
2022/06/22 09:29:21;;;;;;;13.43;12.30;;;23.30;99.90;;;;;;4974107;28;20497;-68
2022/06/22 09:32:10;;;;;;;12.73;11.83;;;23.30;99.90;;;;;;4973394;28;20423;-68
2022/06/22 09:34:47;;;;;;;14.33;13.03;;;23.40;99.90;;;;;;4987551;28;20451;-70
2022/06/22 09:37:25;;;;;;;16.20;14.57;;;23.50;99.90;;;;;;4981742;28;20450;-68
2022/06/22 09:40:08;;;;;;;14.53;13.30;;;23.70;99.90;;;;;;4990762;28;20485;-69
2022/06/22 09:43:04;;;;;;;13.90;12.63;;;23.80;99.90;;;;;;4992075;28;20435;-69
2022/06/22 09:46:07;;;;;;;15.27;14.00;;;24.00;99.90;;;;;;4990283;28;20431;-72
2022/06/22 09:48:50;;;;;;;13.57;12.47;;;24.20;99.90;;;;;;4991312;28;20480;-70
2022/06/22 09:51:34;;;;;;;14.70;13.17;;;24.30;99.90;;;;;;4992072;28;20485;-69
2022/06/22 09:57:36;;;;;;;15.03;13.63;;;24.40;99.90;;;;;;4991393;28;20864;-68
2022/06/22 10:00:01;;;;;;;13.50;12.27;;;24.50;99.90;;;;;;4994466;28;20415;-68
2022/06/22 10:02:57;;;;;;;23.50;12.40;;;24.50;99.90;;;;;;4993771;28;20431;-69
2022/06/22 10:05:41;;;;;;;14.57;12.63;;;24.60;99.90;;;;;;4994609;28;20226;-69
2022/06/22 10:08:38;;;;;;;13.07;12.07;;;24.70;99.90;;;;;;4963857;28;20444;-69
2022/06/22 10:11:27;;;;;;;12.60;11.50;;;24.70;99.90;;;;;;4955867;28;20515;-68
2022/06/22 10:14:13;;;;;;;12.23;11.23;;;24.40;99.90;;;;;;4972839;28;20537;-68
2022/06/22 10:17:24;;;;;;;12.73;11.63;;;24.30;99.90;;;;;;4962186;28;20821;-70
2022/06/22 10:19:55;;;;;;;11.53;10.40;;;24.10;99.90;;;;;;4974671;28;20448;-70
2022/06/22 10:22:32;;;;;;;13.67;12.57;;;23.80;99.90;;;;;;4974872;28;20972;-68
2022/06/22 10:25:05;;;;;;;13.83;12.50;;;23.50;99.90;;;;;;4974807;28;20953;-71
2022/06/22 10:27:57;;;;;;;16.80;15.20;;;23.30;99.90;;;;;;4971427;28;20431;-68
2022/06/22 10:30:47;;;;;;;17.80;16.30;;;22.50;99.90;;;;;;4974352;28;20459;-69
2022/06/22 10:33:20;;;;;;;17.97;16.60;;;21.80;99.90;;;;;;4974646;28;20522;-69
2022/06/22 10:35:58;;;;;;;16.67;15.30;;;21.40;99.90;;;;;;4972037;28;20422;-69
2022/06/22 10:38:51;;;;;;;17.30;15.40;;;21.00;99.90;;;;;;4973809;28;20419;-68
2022/06/22 10:45:10;;;;;;;15.53;14.23;;;20.30;99.90;;;;;;4977752;28;20445;-68
2022/06/22 10:48:03;;;;;;;15.33;14.03;;;20.20;99.90;;;;;;4988080;28;20419;-70
2022/06/22 10:50:55;;;;;;;18.57;16.97;;;20.40;99.90;;;;;;4993530;28;20454;-68
2022/06/22 10:53:38;;;;;;;15.77;14.50;;;20.40;99.90;;;;;;4993482;28;20485;-69
2022/06/22 10:56:35;;;;;;;17.23;15.63;;;20.50;99.90;;;;;;4990877;28;20797;-69
2022/06/22 10:59:32;;;;;;;20.93;17.07;;;20.60;99.90;;;;;;4981556;28;20918;-68
2022/06/22 11:02:40;;;;;;;15.90;14.40;;;20.60;99.90;;;;;;4973586;28;20809;-69
2022/06/22 11:05:21;;;;;;;15.53;14.27;;;20.70;99.90;;;;;;4967733;28;20458;-69
2022/06/22 11:08:12;;;;;;;18.00;16.40;;;20.90;99.90;;;;;;4969130;28;20481;-68
2022/06/22 11:11:05;;;;;;;18.73;17.07;;;21.00;99.90;;;;;;4969863;28;20961;-70
2022/06/22 11:13:52;;;;;;;17.47;15.77;;;21.10;99.90;;;;;;4968075;28;20523;-69
2022/06/22 11:16:46;;;;;;;17.50;15.97;;;21.20;99.90;;;;;;4961927;28;20435;-69
2022/06/22 11:19:31;;;;;;;19.00;17.40;;;21.30;99.90;;;;;;4964645;28;20789;-68
2022/06/22 11:22:02;;;;;;;16.00;14.60;;;21.40;99.90;;;;;;4963430;28;20424;-70
2022/06/22 11:24:46;;;;;;;16.43;15.13;;;21.30;99.90;;;;;;4962736;28;20494;-69
2022/06/22 11:30:48;;;;;;;18.33;16.80;;;21.30;99.90;;;;;;4963139;28;20463;-69
2022/06/22 11:33:44;;;;;;;14.83;13.53;;;21.40;99.90;;;;;;4967031;28;20454;-70
2022/06/22 11:36:40;;;;;;;15.93;14.63;;;21.50;99.90;;;;;;4972730;28;20873;-70
2022/06/22 11:39:41;;;;;;;16.47;13.80;;;21.60;99.90;;;;;;4992545;28;20419;-68
2022/06/22 11:42:35;;;;;;;14.10;12.70;;;21.60;99.90;;;;;;4974165;28;20431;-69
2022/06/22 11:45:51;;;;;;;14.43;13.27;;;21.60;99.90;;;;;;4962503;28;20912;-69
2022/06/22 11:48:49;;;;;;;13.90;12.73;;;21.80;99.90;;;;;;4966532;28;20431;-68
2022/06/22 11:51:45;;;;;;;15.80;12.80;;;22.00;99.90;;;;;;4985974;28;20830;-69
2022/06/22 11:54:33;;;;;;;13.30;12.20;;;22.10;99.90;;;;;;4972689;28;20476;-69
2022/06/22 11:57:05;;;;;;;14.00;12.70;;;22.10;99.90;;;;;;4956760;28;20427;-69
2022/06/22 12:00:01;;;;;;;14.63;13.33;;;22.00;99.90;;;;;;4967595;28;20435;-69
2022/06/22 12:03:03;;;;;;;13.03;12.00;;;21.90;99.90;;;;;;4966597;28;20950;-70
2022/06/22 12:05:40;;;;;;;12.00;10.83;;;21.90;99.90;;;;;;4987863;28;20470;-69
2022/06/22 12:08:39;;;;;;;13.60;12.23;;;21.90;99.90;;;;;;4976284;28;20429;-69
2022/06/22 12:11:17;;;;;;;12.17;11.17;;;21.80;99.90;;;;;;4970210;28;20831;-69
2022/06/22 12:16:52;;;;;;;11.90;10.70;;;21.60;99.90;;;;;;4963578;28;20967;-69
2022/06/22 12:19:41;;;;;;;11.63;10.37;;;21.60;99.90;;;;;;4969634;28;20791;-68
2022/06/22 12:22:15;;;;;;;14.07;9.67;;;21.80;99.90;;;;;;4970057;28;20483;-68
2022/06/22 12:24:52;;;;;;;10.93;9.33;;;21.70;99.90;;;;;;4970070;28;20442;-69
2022/06/22 12:27:25;;;;;;;10.40;9.37;;;21.70;99.90;;;;;;4967741;28;21068;-68
2022/06/22 12:30:12;;;;;;;9.23;8.30;;;21.50;99.90;;;;;;4958890;28;20519;-68
2022/06/22 12:32:57;;;;;;;9.93;8.13;;;21.50;99.90;;;;;;4957495;28;20478;-69
2022/06/22 12:36:03;;;;;;;8.50;7.10;;;21.50;99.90;;;;;;4957503;28;20891;-68
2022/06/22 12:38:38;;;;;;;12.80;7.07;;;21.60;99.90;;;;;;4975115;28;20474;-69
2022/06/22 12:41:28;;;;;;;13.90;8.07;;;21.40;99.90;;;;;;4976801;28;20513;-69
2022/06/22 12:44:37;;;;;;;11.80;7.50;;;21.40;99.90;;;;;;4977013;28;20443;-69
2022/06/22 12:47:37;;;;;;;14.87;8.20;;;21.60;99.90;;;;;;4942328;28;20530;-69
2022/06/22 12:50:45;;;;;;;11.47;8.10;;;21.70;99.90;;;;;;4948568;28;20475;-70
2022/06/22 12:53:32;;;;;;;12.70;7.27;;;21.70;99.90;;;;;;4975358;28;20816;-69
2022/06/22 12:56:21;;;;;;;10.63;8.93;;;21.40;99.90;;;;;;4972162;28;20547;-69
2022/06/22 12:58:59;;;;;;;11.87;7.90;;;21.30;99.90;;;;;;4962479;28;20423;-69
2022/06/22 13:01:25;;;;;;;13.40;8.07;;;21.30;99.90;;;;;;4976339;28;20983;-69
2022/06/22 13:03:57;;;;;;;12.27;9.20;;;21.40;99.90;;;;;;4976228;28;20439;-69
2022/06/22 13:06:25;;;;;;;13.10;7.83;;;21.50;99.90;;;;;;4970439;28;21351;-69
2022/06/22 13:08:53;;;;;;;17.67;8.27;;;21.60;99.90;;;;;;4975241;28;20830;-69
2022/06/22 13:11:22;;;;;;;9.83;7.27;;;21.50;99.90;;;;;;4976359;28;20415;-69
2022/06/22 13:13:53;;;;;;;15.20;8.33;;;21.50;99.90;;;;;;4976047;28;20451;-69
2022/06/22 13:16:46;;;;;;;12.33;7.77;;;21.50;99.90;;;;;;4970484;28;20527;-69
2022/06/22 13:19:50;;;;;;;10.27;7.10;;;21.60;99.90;;;;;;4975236;28;20425;-69
2022/06/22 13:22:28;;;;;;;15.53;8.10;;;21.80;99.90;;;;;;4979761;28;20422;-69
2022/06/22 13:25:08;;;;;;;11.07;7.33;;;22.10;99.90;;;;;;4994814;28;20573;-70
2022/06/22 13:27:56;;;;;;;9.67;7.57;;;22.10;99.90;;;;;;4972407;28;20937;-70
2022/06/22 13:30:29;;;;;;;16.20;8.20;;;22.10;99.90;;;;;;4975500;28;20459;-70
2022/06/22 13:33:07;;;;;;;13.60;6.77;;;22.30;99.90;;;;;;4975731;28;20439;-70
2022/06/22 13:35:38;;;;;;;13.33;6.30;;;22.50;99.90;;;;;;4974277;28;20478;-70
2022/06/22 13:38:16;;;;;;;11.27;6.33;;;22.90;99.90;;;;;;4969849;28;21159;-70
2022/06/22 13:41:24;;;;;;;10.40;6.33;;;23.40;99.90;;;;;;4972663;28;20495;-69
2022/06/22 13:44:22;;;;;;;12.90;8.37;;;24.20;99.90;;;;;;4973031;28;20477;-69
2022/06/22 13:47:18;;;;;;;10.93;6.80;;;25.10;99.90;;;;;;4967303;28;20436;-70
2022/06/22 13:50:25;;;;;;;11.33;6.43;;;25.50;99.90;;;;;;4961391;28;20463;-69
2022/06/22 13:52:56;;;;;;;17.30;5.83;;;26.00;99.90;;;;;;4970344;28;20439;-69
2022/06/22 13:55:40;;;;;;;8.57;5.93;;;26.10;99.90;;;;;;4972971;28;20506;-69
2022/06/22 13:58:14;;;;;;;18.03;6.73;;;26.30;99.90;;;;;;4969038;28;21902;-69